Baltic, Ohio
Current Conditions -  °F | °C
As of 3:53 PM on Tuesday 27 Jan 2015 (Local Time) from KPHD Reporting Station
Overcast Overcast  
Wind Chill: 12°   Ceiling: 2600
Heat Index: 22°   Visibility: 8mi
Dew Point: 13°   Wind: 9mph
Humidity: 68%   Direction: 320°NW
Pressure: 30.06"   Gusts: NA
Location:  40.44°N, 81.7°W
Report Text: KPHD 272053Z AUTO 32008KT 8SM OVC026 M06/M11 A3006 RMK AO2 SNB36E47 SLP191 P0000 60000 T10561106 53014
Loading
Personal Weather Stations






























Interactive Weather Map New forecast layout! Learn more

10-Day Weather Forecast

Advertisements
Track Severe Weather on mobile